Time;durP1;ratioP1;P1;durP2;ratioP2;P2;SDS_P1;SDS_P2;PMS_P1;PMS_P2;Temp;Humidity;BMP_temperature;BMP_pressure;BME280_temperature;BME280_humidity;BME280_pressure;Samples;Min_cycle;Max_cycle;Signal;HPM_P1;HPM_P2
2022/11/25 00:01:51;;;;;;;9.20;3.05;;;15.30;96.60;;;;;;5054059;28;20454;-76
2022/11/25 00:04:16;;;;;;;14.23;3.53;;;15.30;96.60;;;;;;5054642;28;20021;-77
2022/11/25 00:06:42;;;;;;;11.68;2.45;;;15.30;96.70;;;;;;5054938;28;20029;-75
2022/11/25 00:09:12;;;;;;;7.38;2.58;;;15.40;96.70;;;;;;5054422;28;20016;-74
2022/11/25 00:11:39;;;;;;;11.82;2.30;;;15.30;96.70;;;;;;5055120;28;20100;-75
2022/11/25 00:14:08;;;;;;;12.63;3.30;;;15.30;96.70;;;;;;5055536;28;20068;-75
2022/11/25 00:16:34;;;;;;;10.50;2.88;;;15.40;96.70;;;;;;5055413;28;20021;-76
2022/11/25 00:19:00;;;;;;;11.93;3.13;;;15.30;96.70;;;;;;5055434;28;20390;-75
2022/11/25 00:21:30;;;;;;;12.05;3.00;;;15.40;96.60;;;;;;5054874;28;20047;-77
2022/11/25 00:24:01;;;;;;;8.18;2.30;;;15.40;96.70;;;;;;5055184;28;20032;-76
2022/11/25 00:26:29;;;;;;;11.90;2.45;;;15.30;96.70;;;;;;5053627;28;20086;-76
2022/11/25 00:28:57;;;;;;;8.02;2.25;;;15.30;96.60;;;;;;5055135;28;20029;-77
2022/11/25 00:31:25;;;;;;;9.30;2.50;;;15.30;96.60;;;;;;5055290;28;20543;-76
2022/11/25 00:33:52;;;;;;;11.65;2.47;;;15.30;96.70;;;;;;5055051;28;20473;-76
2022/11/25 00:36:17;;;;;;;10.60;1.90;;;15.30;96.70;;;;;;5054805;28;20044;-77
2022/11/25 00:38:43;;;;;;;7.97;2.15;;;15.20;96.60;;;;;;5055529;28;20365;-75
2022/11/25 00:46:37;;;;;;;9.70;2.40;;;15.20;96.70;;;;;;5054701;28;20058;-76
2022/11/25 00:49:02;;;;;;;6.72;1.90;;;15.20;96.80;;;;;;5054948;28;20029;-77
2022/11/25 00:51:28;;;;;;;8.07;2.30;;;15.20;96.80;;;;;;5053555;28;20159;-77
2022/11/25 00:53:54;;;;;;;7.38;1.70;;;15.10;96.80;;;;;;5054671;28;20029;-76
2022/11/25 00:56:21;;;;;;;10.15;2.00;;;15.20;96.70;;;;;;5055807;28;20119;-76
2022/11/25 00:58:47;;;;;;;5.75;1.75;;;15.20;96.80;;;;;;5055115;28;20032;-78
2022/11/25 01:01:13;;;;;;;7.40;1.38;;;15.10;96.70;;;;;;5054876;28;20025;-75
2022/11/25 01:03:38;;;;;;;6.85;1.30;;;15.10;96.70;;;;;;5053448;28;20033;-76
2022/11/25 01:06:06;;;;;;;6.72;1.92;;;15.10;96.60;;;;;;5054387;28;20017;-75
2022/11/25 01:08:34;;;;;;;8.40;1.48;;;15.00;96.70;;;;;;5053867;28;20481;-75
2022/11/25 01:11:01;;;;;;;5.28;1.58;;;15.10;96.70;;;;;;5054211;28;20025;-75
2022/11/25 01:13:27;;;;;;;5.28;1.42;;;15.10;96.80;;;;;;5053222;28;20063;-74
2022/11/25 01:15:53;;;;;;;4.72;1.30;;;15.00;96.80;;;;;;5054316;28;20021;-75
2022/11/25 01:18:19;;;;;;;6.45;1.08;;;15.00;96.70;;;;;;5054220;28;20470;-75
2022/11/25 01:20:44;;;;;;;5.00;0.82;;;15.00;96.70;;;;;;5054166;28;20021;-75
2022/11/25 01:23:10;;;;;;;5.35;1.00;;;14.90;96.50;;;;;;5053578;28;20386;-74
2022/11/25 01:25:36;;;;;;;4.57;0.90;;;15.00;96.40;;;;;;5054205;28;20611;-74
2022/11/25 01:28:02;;;;;;;3.75;0.70;;;14.90;96.50;;;;;;5053961;28;20052;-75
2022/11/25 01:30:27;;;;;;;3.97;1.23;;;14.90;96.50;;;;;;5054395;28;20174;-75
2022/11/25 01:32:53;;;;;;;2.13;0.70;;;15.00;96.60;;;;;;5053792;28;20059;-76
2022/11/25 01:35:18;;;;;;;2.40;0.73;;;15.00;96.50;;;;;;5053997;28;20051;-75
2022/11/25 01:37:44;;;;;;;4.30;1.05;;;15.00;96.40;;;;;;5053292;28;20029;-75
2022/11/25 01:40:09;;;;;;;3.25;0.95;;;14.90;96.40;;;;;;5053948;28;20071;-76
2022/11/25 01:42:47;;;;;;;3.03;0.52;;;14.90;96.30;;;;;;5053575;28;20044;-75
2022/11/25 01:45:32;;;;;;;3.28;0.50;;;15.00;96.30;;;;;;5053874;28;20025;-75
2022/11/25 01:48:03;;;;;;;3.13;0.60;;;14.90;96.10;;;;;;5052177;28;20421;-75
2022/11/25 01:50:30;;;;;;;2.58;0.45;;;14.90;96.10;;;;;;5053806;28;20020;-75
2022/11/25 01:52:57;;;;;;;2.60;0.47;;;14.80;96.10;;;;;;5053105;28;20104;-75
2022/11/25 01:55:31;;;;;;;2.38;0.30;;;14.80;96.10;;;;;;5053440;28;20017;-79
2022/11/25 01:58:18;;;;;;;3.22;0.70;;;14.80;96.10;;;;;;5053287;28;20029;-78
2022/11/25 02:00:50;;;;;;;2.65;0.98;;;14.70;96.30;;;;;;5053423;28;20021;-78
2022/11/25 02:03:22;;;;;;;1.88;0.50;;;14.60;96.60;;;;;;5053437;28;20037;-78
2022/11/25 02:05:51;;;;;;;2.60;0.50;;;14.60;96.40;;;;;;5053299;28;20029;-77
2022/11/25 02:08:18;;;;;;;2.33;0.50;;;14.60;96.40;;;;;;5052931;28;20061;-77
2022/11/25 02:10:45;;;;;;;3.60;0.70;;;14.50;96.40;;;;;;5052164;28;20040;-76
2022/11/25 02:13:11;;;;;;;2.08;0.60;;;14.50;96.50;;;;;;5053078;28;20485;-77
2022/11/25 02:15:36;;;;;;;2.05;0.52;;;14.60;96.50;;;;;;5053282;28;20059;-76
2022/11/25 02:18:02;;;;;;;1.95;0.65;;;14.60;96.50;;;;;;5053113;28;20480;-77
2022/11/25 02:20:28;;;;;;;2.92;0.50;;;14.60;96.50;;;;;;5051248;28;20048;-76
2022/11/25 02:23:02;;;;;;;4.53;0.45;;;14.60;96.50;;;;;;5052601;28;20385;-77
2022/11/25 02:25:33;;;;;;;1.48;0.35;;;14.60;96.50;;;;;;5052975;28;20032;-77
2022/11/25 02:28:07;;;;;;;2.93;0.57;;;14.60;96.50;;;;;;5052962;28;20054;-77
2022/11/25 02:30:33;;;;;;;1.73;0.50;;;14.50;96.40;;;;;;5051606;28;20683;-77
2022/11/25 02:32:59;;;;;;;1.67;0.40;;;14.50;96.40;;;;;;5053020;28;20021;-78
2022/11/25 02:35:33;;;;;;;2.05;0.40;;;14.50;96.40;;;;;;5052584;28;20615;-77
2022/11/25 02:38:04;;;;;;;3.03;0.50;;;14.50;96.40;;;;;;5052979;28;20028;-77
2022/11/25 02:40:30;;;;;;;2.00;0.40;;;14.50;96.50;;;;;;5052883;28;20021;-77
2022/11/25 02:42:58;;;;;;;5.50;0.60;;;14.50;96.50;;;;;;5052643;28;20052;-77
2022/11/25 02:45:34;;;;;;;1.85;0.55;;;14.50;96.30;;;;;;5052603;28;20021;-78
2022/11/25 02:48:00;;;;;;;1.98;0.38;;;14.50;96.20;;;;;;5052818;28;20025;-77
2022/11/25 02:50:25;;;;;;;2.00;0.43;;;14.50;96.20;;;;;;5052564;28;20021;-77
2022/11/25 02:52:51;;;;;;;4.32;0.70;;;14.50;96.10;;;;;;5052696;28;20405;-77
2022/11/25 02:55:16;;;;;;;2.25;0.52;;;14.40;96.20;;;;;;5052607;28;20382;-77
2022/11/25 02:57:42;;;;;;;3.42;0.45;;;14.40;96.30;;;;;;5051515;28;20086;-77
2022/11/25 03:00:08;;;;;;;2.72;0.60;;;14.50;96.20;;;;;;5052610;28;20055;-78
2022/11/25 03:02:33;;;;;;;1.98;0.40;;;14.40;96.40;;;;;;5052701;28;20036;-77
2022/11/25 03:04:59;;;;;;;3.53;1.02;;;14.40;96.20;;;;;;5052146;28;20473;-77
2022/11/25 03:07:24;;;;;;;3.67;0.60;;;14.50;96.20;;;;;;5052635;28;20025;-77
2022/11/25 03:09:50;;;;;;;3.72;0.90;;;14.40;96.10;;;;;;5052600;28;20379;-77
2022/11/25 03:12:18;;;;;;;4.50;1.13;;;14.50;96.30;;;;;;5052594;28;20025;-77
2022/11/25 03:14:44;;;;;;;3.30;0.80;;;14.50;96.40;;;;;;5052399;28;20055;-77
2022/11/25 03:17:10;;;;;;;3.47;0.95;;;14.50;96.30;;;;;;5052563;28;20061;-76
2022/11/25 03:19:35;;;;;;;2.50;0.75;;;14.50;96.30;;;;;;5052204;28;20039;-76
2022/11/25 03:22:01;;;;;;;4.18;1.13;;;14.50;96.30;;;;;;5052451;28;20076;-77
2022/11/25 03:24:26;;;;;;;3.47;0.80;;;14.50;96.30;;;;;;5051071;28;20021;-77
2022/11/25 03:26:52;;;;;;;3.05;1.20;;;14.50;96.50;;;;;;5052599;28;20029;-77
2022/11/25 03:29:18;;;;;;;4.93;1.10;;;14.40;96.10;;;;;;5052222;28;20530;-77
2022/11/25 03:31:43;;;;;;;2.83;0.98;;;14.50;96.30;;;;;;5054823;28;20025;-76
2022/11/25 03:34:09;;;;;;;3.13;1.00;;;14.50;96.10;;;;;;5055977;28;20868;-76
2022/11/25 03:36:34;;;;;;;4.90;1.15;;;14.50;96.20;;;;;;5066537;28;20424;-76
2022/11/25 03:39:01;;;;;;;7.00;1.35;;;14.50;96.20;;;;;;5055782;28;20033;-77
2022/11/25 03:41:26;;;;;;;3.85;0.93;;;14.50;96.10;;;;;;5055475;28;20100;-76
2022/11/25 03:43:52;;;;;;;4.75;1.40;;;14.40;96.00;;;;;;5056101;28;20631;-76
2022/11/25 03:46:17;;;;;;;6.60;1.50;;;14.40;96.00;;;;;;5056050;28;20021;-76
2022/11/25 03:48:43;;;;;;;4.03;1.02;;;14.30;96.00;;;;;;5055646;28;20036;-76
2022/11/25 03:51:09;;;;;;;6.85;1.27;;;14.30;96.20;;;;;;5055937;28;20378;-77
2022/11/25 03:53:34;;;;;;;7.70;1.38;;;14.30;96.20;;;;;;5055896;28;20035;-77
2022/11/25 03:56:00;;;;;;;3.40;1.35;;;14.30;96.20;;;;;;5055674;28;20409;-77
2022/11/25 03:58:26;;;;;;;6.28;1.02;;;14.20;96.30;;;;;;5055939;28;20029;-77
2022/11/25 04:00:51;;;;;;;3.85;1.00;;;14.30;96.30;;;;;;5054383;28;20040;-77
2022/11/25 04:03:17;;;;;;;4.53;0.98;;;14.20;96.40;;;;;;5055448;28;20052;-77
2022/11/25 04:05:42;;;;;;;5.63;1.10;;;14.20;96.40;;;;;;5055676;28;20013;-77
2022/11/25 04:08:08;;;;;;;6.22;1.20;;;14.20;96.60;;;;;;5055743;28;20466;-77
2022/11/25 04:10:33;;;;;;;5.50;1.80;;;14.20;96.50;;;;;;5054531;28;20039;-77
2022/11/25 04:12:59;;;;;;;5.38;1.33;;;14.20;96.60;;;;;;5055823;28;20496;-78
2022/11/25 04:15:24;;;;;;;4.25;1.42;;;14.10;96.70;;;;;;5055749;28;20029;-77
2022/11/25 04:17:50;;;;;;;5.75;1.27;;;14.20;96.80;;;;;;5056115;28;20096;-77
2022/11/25 04:20:16;;;;;;;6.20;1.55;;;14.10;96.80;;;;;;5055525;28;20119;-76
2022/11/25 04:22:41;;;;;;;5.95;1.00;;;14.20;96.80;;;;;;5055151;28;20028;-78
2022/11/25 04:25:08;;;;;;;3.22;1.40;;;14.20;96.80;;;;;;5055276;28;20465;-77
2022/11/25 04:27:33;;;;;;;5.50;1.38;;;14.20;96.90;;;;;;5055289;28;20037;-77
2022/11/25 04:29:59;;;;;;;9.10;1.88;;;14.20;97.00;;;;;;5054857;28;20044;-77
2022/11/25 04:32:24;;;;;;;4.28;1.50;;;14.20;97.00;;;;;;5054873;28;20033;-76
2022/11/25 04:34:50;;;;;;;6.07;1.35;;;14.10;97.10;;;;;;5055403;28;20095;-77
2022/11/25 04:37:16;;;;;;;4.65;1.45;;;14.10;97.10;;;;;;5054948;28;20128;-77
2022/11/25 04:39:41;;;;;;;3.65;1.33;;;14.10;97.10;;;;;;5055200;28;20166;-76
2022/11/25 04:44:51;;;;;;;6.25;1.65;;;14.10;97.20;;;;;;5054997;28;20036;-77
2022/11/25 04:47:17;;;;;;;8.23;1.58;;;14.00;97.10;;;;;;5054380;28;20028;-77
2022/11/25 04:49:42;;;;;;;5.82;1.42;;;14.10;97.10;;;;;;5055042;28;20021;-77
2022/11/25 04:52:08;;;;;;;6.20;1.30;;;14.10;97.10;;;;;;5054737;28;20068;-77
2022/11/25 04:54:34;;;;;;;3.55;0.95;;;14.10;97.10;;;;;;5055102;28;20056;-77
2022/11/25 04:56:59;;;;;;;5.43;1.30;;;14.10;97.10;;;;;;5054503;28;20053;-77
2022/11/25 04:59:40;;;;;;;6.72;1.55;;;14.10;97.00;;;;;;5054567;28;20427;-76
2022/11/25 05:02:12;;;;;;;7.07;1.52;;;14.10;96.90;;;;;;5053997;28;20072;-77
2022/11/25 05:04:37;;;;;;;5.75;1.30;;;14.10;96.90;;;;;;5054635;28;20032;-77
2022/11/25 05:07:03;;;;;;;4.28;1.30;;;14.10;96.80;;;;;;5054349;28;20428;-76
2022/11/25 05:09:28;;;;;;;4.32;1.05;;;14.10;96.80;;;;;;5054251;28;20052;-78
2022/11/25 05:11:54;;;;;;;4.15;1.25;;;14.10;96.70;;;;;;5054551;28;20025;-77
2022/11/25 05:14:20;;;;;;;3.85;1.10;;;14.20;96.80;;;;;;5054307;28;20067;-78
2022/11/25 05:16:45;;;;;;;4.10;1.33;;;14.10;96.70;;;;;;5052775;28;20032;-78
2022/11/25 05:19:11;;;;;;;5.13;1.25;;;14.10;96.80;;;;;;5054258;28;20033;-78
2022/11/25 05:21:36;;;;;;;4.22;1.27;;;14.10;96.80;;;;;;5054490;28;20077;-78
2022/11/25 05:24:02;;;;;;;4.32;1.55;;;14.10;96.80;;;;;;5053849;28;20037;-77
2022/11/25 05:26:27;;;;;;;5.18;1.10;;;14.10;96.70;;;;;;5054293;28;20017;-78
2022/11/25 05:28:53;;;;;;;5.03;1.23;;;14.10;96.60;;;;;;5052807;28;20397;-77
2022/11/25 05:31:18;;;;;;;5.10;1.10;;;14.10;96.40;;;;;;5053852;28;20021;-77
2022/11/25 05:33:44;;;;;;;5.15;1.40;;;14.10;96.50;;;;;;5051952;28;20033;-77
2022/11/25 05:36:09;;;;;;;5.45;1.58;;;14.10;96.30;;;;;;5053808;28;20013;-77
2022/11/25 05:38:35;;;;;;;7.15;1.17;;;14.10;96.40;;;;;;5053891;28;20497;-78
2022/11/25 05:41:03;;;;;;;3.60;1.27;;;14.00;96.40;;;;;;5054021;28;20021;-77
2022/11/25 05:43:29;;;;;;;3.97;1.10;;;14.10;96.60;;;;;;5053767;28;20112;-78
2022/11/25 05:45:55;;;;;;;4.20;1.08;;;14.10;96.60;;;;;;5053626;28;20047;-77
2022/11/25 05:48:21;;;;;;;4.93;0.98;;;14.10;96.50;;;;;;5053582;28;20029;-78
2022/11/25 05:50:46;;;;;;;6.47;1.42;;;14.10;96.60;;;;;;5053822;28;20029;-77
2022/11/25 05:53:13;;;;;;;5.85;1.77;;;14.20;96.50;;;;;;5053526;28;20025;-77
2022/11/25 05:55:38;;;;;;;8.75;1.42;;;14.10;96.30;;;;;;5053596;28;20028;-76
2022/11/25 05:58:05;;;;;;;6.60;2.00;;;14.10;96.20;;;;;;5053408;28;20025;-77
2022/11/25 06:00:31;;;;;;;5.32;1.90;;;14.10;96.20;;;;;;5053961;28;20263;-77
2022/11/25 06:02:56;;;;;;;12.35;1.83;;;14.10;96.10;;;;;;5065658;28;20064;-77
2022/11/25 06:05:22;;;;;;;5.85;1.45;;;14.00;95.30;;;;;;5072932;28;20355;-76
2022/11/25 06:07:48;;;;;;;3.72;1.08;;;14.20;94.50;;;;;;5070425;28;20028;-77
2022/11/25 06:10:14;;;;;;;4.60;1.20;;;14.40;93.90;;;;;;5073407;28;20025;-77
2022/11/25 06:12:40;;;;;;;5.45;1.20;;;14.50;93.60;;;;;;5073352;28;20020;-77
2022/11/25 06:15:06;;;;;;;3.22;1.20;;;14.60;93.30;;;;;;5073069;28;20031;-77
2022/11/25 06:17:31;;;;;;;3.58;0.60;;;14.50;93.10;;;;;;5062476;28;20052;-76
2022/11/25 06:19:57;;;;;;;10.32;1.65;;;14.60;93.10;;;;;;5056195;28;20055;-78
2022/11/25 06:22:23;;;;;;;3.25;0.98;;;14.50;94.20;;;;;;5056181;28;20033;-77
2022/11/25 06:24:50;;;;;;;4.47;0.80;;;14.30;95.60;;;;;;5056573;28;20045;-77
2022/11/25 06:27:15;;;;;;;4.85;1.20;;;14.20;96.40;;;;;;5065917;28;20032;-77
2022/11/25 06:29:41;;;;;;;3.15;1.00;;;14.20;96.70;;;;;;5067386;28;20020;-77
2022/11/25 06:32:06;;;;;;;4.30;1.40;;;14.20;96.80;;;;;;5062671;28;20071;-76
2022/11/25 06:34:32;;;;;;;6.30;1.60;;;14.20;96.60;;;;;;5051740;28;20025;-76
2022/11/25 06:36:58;;;;;;;4.57;1.50;;;14.20;96.60;;;;;;5061444;28;20024;-77
2022/11/25 06:39:23;;;;;;;5.20;1.20;;;14.20;96.60;;;;;;5064999;28;20477;-77
2022/11/25 06:41:49;;;;;;;6.05;1.55;;;14.30;96.40;;;;;;5051369;28;20021;-77
2022/11/25 06:44:15;;;;;;;5.00;1.35;;;14.30;96.40;;;;;;5052747;28;21927;-78
2022/11/25 06:46:40;;;;;;;5.40;1.10;;;14.30;96.30;;;;;;5069700;28;20469;-77
2022/11/25 06:49:06;;;;;;;8.00;3.35;;;14.30;96.50;;;;;;5064226;28;20023;-73
2022/11/25 06:51:32;;;;;;;6.75;2.40;;;14.30;96.10;;;;;;5069186;28;20107;-76
2022/11/25 06:53:57;;;;;;;8.73;2.78;;;14.30;95.80;;;;;;5062288;28;20025;-75
2022/11/25 06:56:26;;;;;;;6.38;1.45;;;14.20;95.70;;;;;;5059321;28;20433;-79
2022/11/25 06:58:52;;;;;;;8.23;2.20;;;14.10;95.60;;;;;;5069704;28;20120;-77
2022/11/25 07:01:29;;;;;;;10.27;2.17;;;14.20;95.50;;;;;;5075194;28;20025;-76
2022/11/25 07:03:58;;;;;;;9.18;2.60;;;14.10;96.00;;;;;;5065742;28;20029;-80
2022/11/25 07:06:23;;;;;;;16.60;3.63;;;14.20;96.10;;;;;;5077287;28;20024;-84
2022/11/25 07:08:49;;;;;;;13.20;2.50;;;14.20;96.40;;;;;;5069325;28;20024;-82
2022/11/25 07:11:33;;;;;;;14.70;2.92;;;14.20;96.30;;;;;;5079192;28;20023;-86
2022/11/25 07:14:09;;;;;;;12.95;2.45;;;14.20;96.20;;;;;;5055476;28;20401;-81
2022/11/25 07:16:36;;;;;;;9.30;2.50;;;14.20;96.50;;;;;;5054487;28;20436;-78
2022/11/25 07:19:02;;;;;;;8.90;2.70;;;14.30;96.20;;;;;;5057959;28;20021;-80
2022/11/25 07:21:29;;;;;;;15.30;2.55;;;14.20;96.20;;;;;;5066043;28;20501;-81
2022/11/25 07:23:54;;;;;;;17.00;2.85;;;14.30;96.10;;;;;;5055980;28;20020;-79
2022/11/25 07:26:22;;;;;;;11.75;2.83;;;14.40;96.00;;;;;;5061336;28;20028;-78
2022/11/25 07:28:50;;;;;;;10.40;2.60;;;14.30;96.40;;;;;;5055535;28;20179;-80
2022/11/25 07:31:22;;;;;;;8.95;2.58;;;14.30;96.40;;;;;;5064983;28;20444;-78
2022/11/25 07:33:57;;;;;;;15.40;3.70;;;14.30;96.00;;;;;;5059798;28;20130;-78
2022/11/25 07:36:24;;;;;;;12.18;3.08;;;14.30;95.60;;;;;;5055405;28;20067;-76
2022/11/25 07:38:49;;;;;;;10.55;2.70;;;14.30;96.00;;;;;;5056784;28;20078;-76
2022/11/25 07:41:22;;;;;;;11.77;3.28;;;14.40;95.90;;;;;;5059588;28;20021;-76
2022/11/25 07:43:48;;;;;;;;;;;14.30;95.80;;;;;;5055994;28;20037;-77
2022/11/25 07:46:42;;;;;;;19.60;3.20;;;14.30;96.00;;;;;;5062379;28;19909;-77
2022/11/25 07:49:11;;;;;;;10.27;2.75;;;14.30;96.10;;;;;;5054510;28;20033;-77
2022/11/25 07:52:03;;;;;;;10.75;3.25;;;14.30;96.20;;;;;;5056820;28;20486;-76
2022/11/25 07:54:29;;;;;;;10.73;2.95;;;14.30;96.10;;;;;;5055230;28;20123;-77
2022/11/25 07:56:55;;;;;;;11.85;3.80;;;14.30;96.20;;;;;;5062031;28;20482;-76
2022/11/25 07:59:22;;;;;;;17.42;4.13;;;14.30;96.00;;;;;;5054359;28;20029;-76
2022/11/25 08:01:50;;;;;;;13.85;3.72;;;14.30;96.10;;;;;;5084335;28;20088;-76
2022/11/25 08:04:15;;;;;;;21.30;5.50;;;14.30;96.20;;;;;;5072144;28;20028;-77
2022/11/25 08:06:43;;;;;;;14.63;5.13;;;14.20;96.20;;;;;;5067500;28;20025;-76
2022/11/25 08:09:11;;;;;;;12.73;4.28;;;14.20;96.10;;;;;;5065665;28;20115;-76
2022/11/25 08:11:38;;;;;;;13.75;5.10;;;14.20;96.20;;;;;;5067191;28;20025;-77
2022/11/25 08:14:04;;;;;;;16.02;5.22;;;14.20;96.20;;;;;;5061525;28;20033;-78
2022/11/25 08:16:31;;;;;;;19.27;4.72;;;14.20;96.20;;;;;;5059710;28;20478;-77
2022/11/25 08:19:03;;;;;;;11.13;3.90;;;14.20;96.20;;;;;;5054033;28;20024;-76
2022/11/25 08:21:28;;;;;;;11.30;4.03;;;14.20;96.20;;;;;;5057170;28;20083;-76
2022/11/25 08:23:55;;;;;;;18.20;4.28;;;14.20;96.30;;;;;;5059027;28;20425;-76
2022/11/25 08:26:29;;;;;;;14.18;4.28;;;14.20;96.30;;;;;;5060582;28;20021;-76
2022/11/25 08:28:56;;;;;;;13.30;3.90;;;14.10;96.30;;;;;;5052364;28;20144;-76
2022/11/25 08:31:27;;;;;;;17.55;5.10;;;14.10;96.30;;;;;;5072998;28;20108;-75
2022/11/25 08:33:53;;;;;;;16.92;4.22;;;14.10;96.30;;;;;;5074675;28;20032;-76
2022/11/25 08:36:19;;;;;;;13.95;4.25;;;14.10;96.20;;;;;;5074708;28;20106;-78
2022/11/25 08:38:48;;;;;;;12.20;4.05;;;14.10;96.20;;;;;;5055779;28;20056;-77
2022/11/25 08:41:21;;;;;;;11.82;4.10;;;14.10;96.10;;;;;;5063241;28;20017;-78
2022/11/25 08:43:47;;;;;;;15.10;4.13;;;14.10;96.10;;;;;;5055951;28;21375;-78
2022/11/25 08:46:16;;;;;;;12.57;3.72;;;14.10;96.00;;;;;;5063254;28;20096;-78
2022/11/25 08:48:42;;;;;;;8.50;2.80;;;14.10;96.00;;;;;;5072211;28;20116;-76
2022/11/25 08:51:13;;;;;;;8.40;3.42;;;14.10;96.00;;;;;;5062738;28;20099;-79
2022/11/25 08:53:40;;;;;;;12.65;3.60;;;14.10;96.00;;;;;;5054280;28;20036;-76
2022/11/25 08:56:06;;;;;;;11.52;3.75;;;14.10;95.90;;;;;;5054619;28;20124;-78
2022/11/25 08:58:32;;;;;;;9.15;2.80;;;14.20;95.90;;;;;;5054496;28;20036;-76
2022/11/25 09:00:58;;;;;;;13.20;3.05;;;14.20;95.80;;;;;;5057695;28;20029;-76
2022/11/25 09:03:23;;;;;;;8.60;2.63;;;14.20;95.80;;;;;;5068105;28;20032;-77
2022/11/25 09:05:51;;;;;;;12.52;2.80;;;14.10;95.70;;;;;;5074449;28;20025;-79
2022/11/25 09:08:16;;;;;;;8.07;2.70;;;14.20;95.70;;;;;;5059918;28;20025;-77
2022/11/25 09:10:42;;;;;;;6.05;2.00;;;14.20;95.70;;;;;;5068330;28;20035;-76
2022/11/25 09:13:09;;;;;;;7.45;2.20;;;14.20;95.60;;;;;;5074287;28;20462;-76
2022/11/25 09:15:35;;;;;;;10.30;2.40;;;14.20;95.60;;;;;;5057763;28;20448;-76
2022/11/25 09:18:03;;;;;;;6.78;2.42;;;14.20;95.50;;;;;;5072464;28;20526;-79
2022/11/25 09:20:30;;;;;;;5.90;1.85;;;14.20;95.40;;;;;;5061944;28;20032;-76
2022/11/25 09:22:59;;;;;;;6.80;1.90;;;14.20;95.40;;;;;;5055770;28;20063;-77
2022/11/25 09:25:24;;;;;;;6.28;1.58;;;14.20;95.40;;;;;;5054078;28;20017;-75
2022/11/25 09:27:50;;;;;;;8.65;2.22;;;14.20;95.40;;;;;;5059249;28;20402;-77
2022/11/25 09:30:15;;;;;;;5.22;1.48;;;14.20;95.30;;;;;;5060563;28;20466;-76
2022/11/25 09:32:42;;;;;;;6.18;1.85;;;14.30;95.20;;;;;;5058103;28;20524;-77
2022/11/25 09:35:07;;;;;;;5.90;1.50;;;14.20;95.30;;;;;;5050800;28;20435;-76
2022/11/25 09:37:33;;;;;;;7.18;1.60;;;14.30;95.30;;;;;;5056242;28;20522;-77
2022/11/25 09:39:59;;;;;;;5.60;1.98;;;14.30;95.50;;;;;;5071966;28;20371;-77
2022/11/25 09:48:34;;;;;;;8.18;2.22;;;14.40;95.40;;;;;;5058434;28;20068;-77
2022/11/25 09:51:23;;;;;;;12.35;2.65;;;14.30;95.40;;;;;;5065516;28;20028;-77
2022/11/25 09:54:08;;;;;;;8.23;1.95;;;14.30;95.40;;;;;;5061582;28;20028;-78
2022/11/25 09:56:43;;;;;;;13.95;2.22;;;14.30;95.50;;;;;;5063317;28;20021;-78
2022/11/25 09:59:12;;;;;;;10.13;1.67;;;14.30;95.50;;;;;;5054408;28;20025;-79
2022/11/25 10:01:57;;;;;;;9.93;2.10;;;14.30;95.60;;;;;;5077174;28;20035;-79
2022/11/25 10:04:33;;;;;;;11.48;2.42;;;14.20;95.70;;;;;;5060599;28;20043;-78
2022/11/25 10:07:02;;;;;;;8.20;1.60;;;14.30;95.60;;;;;;5051862;28;20017;-78
2022/11/25 10:09:32;;;;;;;11.85;1.60;;;14.30;95.60;;;;;;5052794;28;20036;-78
2022/11/25 10:12:12;;;;;;;11.70;2.40;;;14.30;95.70;;;;;;5051281;28;21250;-78
2022/11/25 10:14:46;;;;;;;5.93;1.85;;;14.20;95.70;;;;;;5056603;28;20099;-79
2022/11/25 10:17:32;;;;;;;7.57;1.90;;;14.30;95.80;;;;;;5058476;28;20470;-79
2022/11/25 10:20:19;;;;;;;12.25;2.00;;;14.30;95.70;;;;;;5050838;28;20108;-78
2022/11/25 10:22:54;;;;;;;15.25;3.00;;;14.30;95.80;;;;;;5070459;28;20076;-78
2022/11/25 10:25:23;;;;;;;12.60;2.75;;;14.30;95.70;;;;;;5071094;28;20027;-72
2022/11/25 10:28:00;;;;;;;14.02;2.67;;;14.30;95.80;;;;;;5059837;28;20024;-79
2022/11/25 10:30:41;;;;;;;9.35;2.20;;;14.30;95.90;;;;;;5059437;28;20025;-78
2022/11/25 10:33:19;;;;;;;8.95;2.50;;;14.30;95.90;;;;;;5062022;28;20497;-79
2022/11/25 10:35:49;;;;;;;10.50;2.53;;;14.40;95.80;;;;;;5072445;28;20066;-78
2022/11/25 10:38:38;;;;;;;9.68;2.08;;;14.40;95.60;;;;;;5069526;28;20692;-79
2022/11/25 10:41:04;;;;;;;10.73;2.13;;;14.40;95.60;;;;;;5063050;28;20079;-78
2022/11/25 10:43:31;;;;;;;6.78;2.20;;;14.50;95.50;;;;;;5061244;28;20037;-77
2022/11/25 10:46:19;;;;;;;6.10;1.92;;;14.50;95.60;;;;;;5070376;28;20099;-77
2022/11/25 10:49:11;;;;;;;5.50;1.98;;;14.50;95.60;;;;;;5061600;28;20114;-76
2022/11/25 10:51:42;;;;;;;7.95;1.85;;;14.50;95.50;;;;;;5069658;28;20048;-77
2022/11/25 10:54:34;;;;;;;6.22;1.88;;;14.60;95.40;;;;;;5051930;28;20033;-76
2022/11/25 10:57:02;;;;;;;4.17;1.40;;;14.60;95.40;;;;;;5054019;28;20501;-77
2022/11/25 10:59:34;;;;;;;14.48;2.35;;;14.60;95.40;;;;;;5060046;28;20035;-76
2022/11/25 11:02:22;;;;;;;7.18;1.95;;;14.60;95.50;;;;;;5051902;28;20040;-76
2022/11/25 11:04:56;;;;;;;10.95;2.17;;;14.60;95.50;;;;;;5064061;28;20025;-76
2022/11/25 11:07:24;;;;;;;7.75;1.63;;;14.60;95.50;;;;;;5063706;28;20056;-76
2022/11/25 11:09:51;;;;;;;7.47;1.85;;;14.80;95.30;;;;;;5071110;28;20020;-76
2022/11/25 11:12:25;;;;;;;17.13;2.72;;;14.70;95.30;;;;;;5058476;28;20594;-76
2022/11/25 11:14:53;;;;;;;10.52;1.95;;;14.80;95.40;;;;;;5059207;28;20279;-76
2022/11/25 11:17:29;;;;;;;13.00;2.95;;;14.80;95.40;;;;;;5052336;28;20090;-76
2022/11/25 11:20:07;;;;;;;12.95;3.33;;;14.80;95.80;;;;;;5055797;28;20061;-75
2022/11/25 11:22:35;;;;;;;11.55;3.22;;;14.90;96.30;;;;;;5052062;28;20049;-75
2022/11/25 11:25:26;;;;;;;14.93;3.05;;;14.80;96.50;;;;;;5058803;28;20027;-76
2022/11/25 11:27:52;;;;;;;8.25;2.63;;;14.80;96.60;;;;;;5061513;28;20493;-76
2022/11/25 11:30:22;;;;;;;8.90;2.30;;;14.80;96.50;;;;;;5065151;28;20394;-75
2022/11/25 11:33:02;;;;;;;10.23;2.58;;;14.80;96.60;;;;;;5065227;28;20017;-73
2022/11/25 11:36:00;;;;;;;10.68;1.90;;;14.90;96.60;;;;;;5054746;28;20047;-77
2022/11/25 11:38:31;;;;;;;21.55;2.70;;;14.90;96.50;;;;;;5069297;28;20034;-75
2022/11/25 11:41:11;;;;;;;19.48;4.25;;;14.90;96.50;;;;;;5055225;28;20401;-76
2022/11/25 11:43:53;;;;;;;18.02;2.95;;;14.90;96.50;;;;;;5054016;28;20033;-77
2022/11/25 11:46:30;;;;;;;11.77;3.67;;;14.90;96.40;;;;;;5055066;28;20469;-78
2022/11/25 11:49:14;;;;;;;15.57;2.97;;;14.90;96.30;;;;;;5063794;28;20824;-79
2022/11/25 11:51:59;;;;;;;14.73;3.05;;;14.90;96.20;;;;;;5058456;28;20021;-79
2022/11/25 11:54:42;;;;;;;19.35;3.22;;;14.90;96.20;;;;;;5066175;28;20049;-79
2022/11/25 11:57:27;;;;;;;15.35;2.90;;;14.90;96.20;;;;;;5061485;28;20623;-78
2022/11/25 12:00:01;;;;;;;18.95;3.15;;;14.90;96.10;;;;;;5059373;28;20120;-77
2022/11/25 12:03:04;;;;;;;16.38;3.30;;;14.90;96.10;;;;;;5061459;28;20132;-77
2022/11/25 12:05:34;;;;;;;15.27;3.35;;;14.90;96.20;;;;;;5058321;28;20053;-77
2022/11/25 12:08:12;;;;;;;14.80;3.25;;;15.00;96.10;;;;;;5060621;28;20083;-76
2022/11/25 12:10:47;;;;;;;13.50;3.15;;;15.00;96.10;;;;;;5056838;28;20032;-77
2022/11/25 12:13:31;;;;;;;12.55;2.80;;;15.00;96.10;;;;;;5058253;28;20029;-76
2022/11/25 12:16:24;;;;;;;15.82;2.83;;;15.00;96.20;;;;;;5057600;28;20064;-77
2022/11/25 12:19:13;;;;;;;12.45;2.38;;;15.00;96.20;;;;;;5073302;28;20028;-75
2022/11/25 12:22:09;;;;;;;15.20;3.17;;;15.00;96.10;;;;;;5063574;28;20036;-77
2022/11/25 12:25:14;;;;;;;47.97;8.00;;;15.10;96.00;;;;;;5068144;28;20036;-79
2022/11/25 12:27:41;;;;;;;42.60;6.57;;;15.00;96.00;;;;;;5056910;28;20586;-75
2022/11/25 12:30:16;;;;;;;21.48;4.30;;;15.00;95.80;;;;;;5059821;28;20106;-73
2022/11/25 12:33:02;;;;;;;17.48;4.32;;;15.10;96.00;;;;;;5054717;28;20036;-79
2022/11/25 12:35:54;;;;;;;19.05;4.13;;;15.20;96.00;;;;;;5059697;28;20017;-78
2022/11/25 12:38:53;;;;;;;21.27;3.70;;;15.10;96.00;;;;;;5063616;28;20055;-73
2022/11/25 12:41:47;;;;;;;15.13;3.33;;;15.50;95.90;;;;;;5062932;28;20025;-77
2022/11/25 12:44:32;;;;;;;18.88;3.40;;;16.20;94.60;;;;;;5061401;28;20056;-79
2022/11/25 12:46:58;;;;;;;26.40;5.10;;;16.50;94.00;;;;;;5058682;28;20017;-78
2022/11/25 12:49:29;;;;;;;21.55;3.17;;;16.70;93.80;;;;;;5064832;28;20039;-76
2022/11/25 12:52:06;;;;;;;23.27;3.95;;;16.60;93.80;;;;;;5054377;28;20021;-78
2022/11/25 12:55:09;;;;;;;17.55;3.30;;;16.60;93.70;;;;;;5054799;28;20032;-78
2022/11/25 12:57:53;;;;;;;;;;;16.60;93.50;;;;;;5064935;28;20098;-76
2022/11/25 13:00:24;;;;;;;19.23;3.63;;;16.30;93.90;;;;;;5054624;28;19935;-77
2022/11/25 13:03:14;;;;;;;20.83;4.45;;;15.90;94.50;;;;;;5062817;28;20084;-77
2022/11/25 13:05:48;;;;;;;24.77;4.25;;;15.70;94.90;;;;;;5061587;28;20021;-75
2022/11/25 13:08:23;;;;;;;26.25;4.70;;;15.70;95.10;;;;;;5063544;28;20025;-77
2022/11/25 13:11:06;;;;;;;18.65;3.30;;;15.60;95.20;;;;;;5060520;28;20031;-76
2022/11/25 13:13:44;;;;;;;22.13;3.17;;;15.50;95.20;;;;;;5053546;28;20479;-82